createdAt,value
2019-02-14T00:00:06.079Z,8.33
2019-02-14T00:01:40.131Z,6.57
2019-02-14T00:03:14.531Z,7.67
2019-02-14T00:04:48.763Z,9.63
2019-02-14T00:06:22.755Z,9.83
2019-02-14T00:07:56.688Z,7.77
2019-02-14T00:09:30.610Z,9.70
2019-02-14T00:11:03.510Z,6.37
2019-02-14T00:12:37.208Z,10.97
2019-02-14T00:14:10.305Z,9.00
2019-02-14T00:15:44.490Z,7.13
2019-02-14T00:17:18.338Z,5.47
2019-02-14T00:18:52.076Z,8.97
2019-02-14T00:20:26.166Z,8.53
2019-02-14T00:22:00.396Z,7.17
2019-02-14T00:23:33.507Z,11.27
2019-02-14T00:25:07.325Z,7.70
2019-02-14T00:26:40.291Z,8.83
2019-02-14T00:28:13.518Z,3.97
2019-02-14T00:29:46.462Z,6.97
2019-02-14T00:31:21.291Z,6.97
2019-02-14T00:32:54.147Z,7.87
2019-02-14T00:34:28.065Z,7.23
2019-02-14T00:36:02.140Z,8.53
2019-02-14T00:37:35.803Z,8.10
2019-02-14T00:39:09.951Z,5.37
2019-02-14T00:40:43.925Z,8.00
2019-02-14T00:42:16.979Z,9.03
2019-02-14T00:43:50.702Z,10.53
2019-02-14T00:45:23.643Z,7.83
2019-02-14T00:46:57.406Z,15.43
2019-02-14T00:48:31.231Z,6.37
2019-02-14T00:50:05.176Z,7.50
2019-02-14T00:51:38.029Z,8.90
2019-02-14T00:53:11.698Z,8.23
2019-02-14T00:54:45.284Z,9.77
2019-02-14T00:56:19.186Z,7.63
2019-02-14T00:57:53.325Z,11.40
2019-02-14T00:59:27.327Z,4.90
2019-02-14T01:01:00.685Z,16.00
2019-02-14T01:02:35.360Z,11.90
2019-02-14T01:04:08.361Z,5.97
2019-02-14T01:05:42.384Z,12.17
2019-02-14T01:07:16.574Z,9.00
2019-02-14T01:08:51.114Z,14.00
2019-02-14T01:10:24.188Z,10.50
2019-02-14T01:11:58.179Z,11.37
2019-02-14T01:13:31.787Z,10.50
2019-02-14T01:15:05.173Z,10.63
2019-02-14T01:16:39.752Z,12.73
2019-02-14T01:18:13.653Z,13.17
2019-02-14T01:19:46.553Z,15.40
2019-02-14T01:21:19.312Z,25.77
2019-02-14T01:22:52.124Z,12.47
2019-02-14T01:24:25.494Z,20.83
2019-02-14T01:25:59.128Z,16.27
2019-02-14T01:27:33.247Z,26.80
2019-02-14T01:29:07.009Z,16.67
2019-02-14T01:30:41.122Z,18.07
2019-02-14T01:32:14.881Z,17.23
2019-02-14T01:33:47.777Z,20.73
2019-02-14T01:35:21.802Z,11.27
2019-02-14T01:36:55.639Z,16.70
2019-02-14T01:38:28.662Z,10.53
2019-02-14T01:40:02.557Z,13.57
2019-02-14T01:41:36.395Z,19.90
2019-02-14T01:43:10.211Z,15.63
2019-02-14T01:44:43.384Z,10.97
2019-02-14T01:46:17.191Z,15.20
2019-02-14T01:47:51.068Z,18.63
2019-02-14T01:49:23.847Z,9.40
2019-02-14T01:53:33.124Z,15.60
2019-02-14T01:55:05.998Z,17.53
2019-02-14T01:56:38.917Z,14.30
2019-02-14T01:58:12.678Z,12.13
2019-02-14T01:59:45.631Z,15.43
2019-02-14T02:01:20.523Z,15.93
2019-02-14T02:02:54.412Z,14.80
2019-02-14T02:04:28.198Z,17.40
2019-02-14T02:06:01.860Z,19.97
2019-02-14T02:07:35.894Z,14.73
2019-02-14T02:09:08.875Z,15.67
2019-02-14T02:10:41.909Z,18.93
2019-02-14T02:12:14.911Z,25.20
2019-02-14T02:13:49.142Z,16.63
2019-02-14T02:15:23.998Z,15.17
2019-02-14T02:16:56.815Z,19.57
2019-02-14T02:18:30.734Z,19.63
2019-02-14T02:20:04.506Z,17.57
2019-02-14T02:21:37.735Z,15.47
2019-02-14T02:23:11.692Z,23.77
2019-02-14T02:24:44.590Z,23.03
2019-02-14T02:26:18.471Z,23.23
2019-02-14T02:27:53.655Z,19.13
2019-02-14T02:29:27.495Z,22.53
2019-02-14T02:31:01.588Z,18.50
2019-02-14T02:32:35.671Z,13.93
2019-02-14T02:34:08.655Z,14.47
2019-02-14T02:35:42.098Z,13.17
2019-02-14T02:37:15.204Z,16.23
2019-02-14T02:38:49.190Z,18.73
2019-02-14T02:40:22.883Z,23.20
2019-02-14T02:41:56.511Z,20.57
2019-02-14T02:43:30.106Z,16.07
2019-02-14T02:45:04.041Z,13.27
2019-02-14T02:46:37.858Z,19.77
2019-02-14T02:48:11.688Z,20.37
2019-02-14T02:49:45.414Z,19.73
2019-02-14T02:51:19.216Z,22.50
2019-02-14T02:52:53.108Z,23.73
2019-02-14T02:54:27.719Z,27.53
2019-02-14T02:56:01.598Z,19.47
2019-02-14T02:57:34.538Z,16.77
2019-02-14T02:59:08.740Z,22.63
2019-02-14T03:00:42.717Z,20.90
2019-02-14T03:02:16.545Z,17.67
2019-02-14T03:03:50.724Z,18.13
2019-02-14T03:05:25.588Z,18.27
2019-02-14T03:06:58.416Z,23.37
2019-02-14T03:08:32.535Z,16.47
2019-02-14T03:10:06.497Z,15.97
2019-02-14T03:11:39.548Z,26.00
2019-02-14T03:13:13.513Z,21.30
2019-02-14T03:14:48.344Z,20.50
2019-02-14T03:16:21.254Z,22.57
2019-02-14T03:17:55.045Z,22.77
2019-02-14T03:19:28.058Z,22.40
2019-02-14T03:21:02.627Z,23.57
2019-02-14T03:22:35.660Z,18.17
2019-02-14T03:24:09.603Z,19.60
2019-02-14T03:25:43.608Z,21.20
2019-02-14T03:27:16.488Z,28.77
2019-02-14T03:28:49.626Z,28.47
2019-02-14T03:30:23.454Z,25.53
2019-02-14T03:31:57.469Z,26.93
2019-02-14T03:33:30.365Z,36.87
2019-02-14T03:35:04.247Z,28.63
2019-02-14T03:36:38.054Z,23.97
2019-02-14T03:38:11.962Z,28.17
2019-02-14T03:39:44.966Z,24.40
2019-02-14T03:41:18.965Z,29.87
2019-02-14T03:42:54.070Z,27.87
2019-02-14T03:44:26.773Z,29.57
2019-02-14T03:46:00.677Z,33.03
2019-02-14T03:47:33.692Z,31.17
2019-02-14T03:49:06.834Z,18.50
2019-02-14T03:50:40.105Z,30.47
2019-02-14T03:52:12.973Z,41.07
2019-02-14T03:53:45.778Z,41.07
2019-02-14T03:55:19.653Z,32.77
2019-02-14T03:56:53.435Z,32.33
2019-02-14T03:58:26.403Z,23.33
2019-02-14T04:00:00.268Z,32.40
2019-02-14T04:01:33.015Z,33.53
2019-02-14T04:03:06.762Z,20.30
2019-02-14T04:04:40.586Z,35.27
2019-02-14T04:06:14.664Z,34.60
2019-02-14T04:07:48.444Z,32.30
2019-02-14T04:09:21.211Z,37.97
2019-02-14T04:10:54.884Z,44.63
2019-02-14T04:12:28.930Z,42.07
2019-02-14T04:14:02.745Z,30.97
2019-02-14T04:15:37.742Z,37.27
2019-02-14T04:17:10.725Z,41.43
2019-02-14T04:18:44.536Z,32.83
2019-02-14T04:20:17.517Z,32.07
2019-02-14T04:21:50.384Z,43.73
2019-02-14T04:23:24.200Z,36.33
2019-02-14T04:24:57.083Z,27.57
2019-02-14T04:26:30.954Z,31.07
2019-02-14T04:28:04.747Z,34.43
2019-02-14T04:29:37.846Z,29.70
2019-02-14T04:31:11.511Z,49.37
2019-02-14T04:32:45.238Z,38.03
2019-02-14T04:34:19.054Z,34.63
2019-02-14T04:35:52.913Z,28.83
2019-02-14T04:37:26.039Z,39.63
2019-02-14T04:38:58.906Z,40.37
2019-02-14T04:40:33.942Z,40.00
2019-02-14T04:42:07.497Z,45.90
2019-02-14T04:43:41.472Z,32.20
2019-02-14T04:45:14.332Z,41.30
2019-02-14T04:46:47.321Z,33.93
2019-02-14T04:48:21.253Z,33.40
2019-02-14T04:49:55.197Z,31.53
2019-02-14T04:51:29.187Z,38.07
2019-02-14T04:53:02.233Z,31.17
2019-02-14T04:54:36.471Z,29.83
2019-02-14T04:56:09.243Z,38.33
2019-02-14T04:57:43.267Z,33.30
2019-02-14T04:59:17.172Z,40.17
2019-02-14T05:00:50.129Z,47.37
2019-02-14T05:02:23.223Z,29.27
2019-02-14T05:03:55.977Z,34.87
2019-02-14T05:05:29.787Z,36.67
2019-02-14T05:07:02.952Z,34.20
2019-02-14T05:08:37.447Z,29.67
2019-02-14T05:10:11.223Z,39.83
2019-02-14T05:11:45.097Z,23.17
2019-02-14T05:13:18.907Z,33.87
2019-02-14T05:14:52.780Z,36.60
2019-02-14T05:16:26.474Z,30.27
2019-02-14T05:17:59.413Z,25.33
2019-02-14T05:19:32.399Z,29.47
2019-02-14T05:21:06.530Z,30.30
2019-02-14T05:22:40.368Z,31.63
2019-02-14T05:24:14.214Z,27.33
2019-02-14T05:25:47.977Z,27.53
2019-02-14T05:27:21.006Z,26.63
2019-02-14T05:28:53.955Z,30.80
2019-02-14T05:30:28.156Z,28.30
2019-02-14T05:32:01.216Z,32.20
2019-02-14T05:33:34.318Z,29.17
2019-02-14T05:35:08.102Z,29.33
2019-02-14T05:36:40.907Z,23.83
2019-02-14T05:38:13.691Z,25.00
2019-02-14T05:39:47.580Z,26.87
2019-02-14T05:41:20.834Z,19.80
2019-02-14T05:42:54.448Z,18.57
2019-02-14T05:44:27.516Z,19.53
2019-02-14T05:46:01.117Z,25.20
2019-02-14T05:47:34.814Z,22.37
2019-02-14T05:49:08.812Z,20.47
2019-02-14T05:50:42.547Z,19.97
2019-02-14T05:52:16.266Z,21.00
2019-02-14T05:53:50.100Z,15.13
2019-02-14T05:55:24.017Z,23.10
2019-02-14T05:56:57.024Z,19.03
2019-02-14T05:58:30.789Z,27.53
2019-02-14T06:00:03.725Z,15.77
2019-02-14T06:01:37.687Z,19.90
2019-02-14T06:03:11.635Z,14.00
2019-02-14T06:04:45.873Z,18.60
2019-02-14T06:06:19.968Z,21.13
2019-02-14T06:07:53.078Z,22.83
2019-02-14T06:09:27.181Z,20.93
2019-02-14T06:11:01.205Z,15.13
2019-02-14T06:12:35.227Z,16.47
2019-02-14T06:14:09.266Z,14.43
2019-02-14T06:15:43.504Z,17.27
2019-02-14T06:17:17.330Z,22.20
2019-02-14T06:18:50.952Z,16.30
2019-02-14T06:20:23.819Z,17.37
2019-02-14T06:21:57.975Z,23.57
2019-02-14T06:23:31.035Z,19.37
2019-02-14T06:25:05.007Z,16.13
2019-02-14T06:26:38.766Z,16.13
2019-02-14T06:28:12.632Z,14.53
2019-02-14T06:29:46.363Z,20.33
2019-02-14T06:31:20.423Z,15.43
2019-02-14T06:32:54.516Z,15.63
2019-02-14T06:34:28.393Z,16.77
2019-02-14T06:36:02.055Z,15.17
2019-02-14T06:37:36.010Z,18.37
2019-02-14T06:39:10.024Z,19.67
2019-02-14T06:40:43.975Z,16.50
2019-02-14T06:42:16.893Z,15.93
2019-02-14T06:43:49.891Z,13.27
2019-02-14T06:45:24.926Z,13.43
2019-02-14T06:46:57.747Z,15.10
2019-02-14T06:48:30.611Z,10.93
2019-02-14T06:50:03.542Z,13.47
2019-02-14T06:51:37.209Z,17.77
2019-02-14T06:53:11.079Z,14.50
2019-02-14T06:54:44.857Z,10.90
2019-02-14T06:56:18.642Z,11.27
2019-02-14T06:57:52.513Z,12.93
2019-02-14T06:59:26.471Z,12.83
2019-02-14T07:00:59.565Z,16.07
2019-02-14T07:02:33.294Z,18.67
2019-02-14T07:04:07.229Z,4.23
2019-02-14T07:05:41.133Z,7.43
2019-02-14T07:07:18.609Z,8.13
2019-02-14T07:08:48.302Z,8.63
2019-02-14T07:10:23.280Z,8.90
2019-02-14T07:11:57.313Z,6.67
2019-02-14T07:13:30.978Z,5.83
2019-02-14T07:15:03.925Z,6.50
2019-02-14T07:16:37.949Z,3.87
2019-02-14T07:18:11.807Z,5.53
2019-02-14T07:19:44.795Z,7.17
2019-02-14T07:21:17.794Z,7.23
2019-02-14T07:22:51.692Z,3.77
2019-02-14T07:24:24.712Z,6.90
2019-02-14T07:25:58.761Z,3.87
2019-02-14T07:27:32.471Z,7.33
2019-02-14T07:29:06.307Z,5.60
2019-02-14T07:30:40.329Z,3.63
2019-02-14T07:32:13.172Z,4.27
2019-02-14T07:33:46.997Z,2.27
2019-02-14T07:35:20.952Z,2.47
2019-02-14T07:36:54.897Z,3.70
2019-02-14T07:38:28.938Z,2.33
2019-02-14T07:40:03.729Z,2.17
2019-02-14T07:41:37.513Z,6.50
2019-02-14T07:43:10.518Z,2.33
2019-02-14T07:44:44.401Z,1.87
2019-02-14T07:46:22.574Z,2.47
2019-02-14T07:47:51.390Z,3.43
2019-02-14T07:49:25.131Z,2.03
2019-02-14T07:50:59.950Z,2.43
2019-02-14T07:52:33.687Z,2.27
2019-02-14T07:54:07.481Z,3.07
2019-02-14T07:55:40.550Z,1.73
2019-02-14T07:57:14.323Z,2.87
2019-02-14T07:58:48.057Z,1.90
2019-02-14T08:00:22.093Z,1.90
2019-02-14T08:01:56.033Z,2.10
2019-02-14T08:03:29.997Z,4.23
2019-02-14T08:05:03.990Z,2.17
2019-02-14T08:06:37.919Z,2.10
2019-02-14T08:08:10.924Z,1.97
2019-02-14T08:09:43.712Z,2.10
2019-02-14T08:11:16.450Z,2.83
2019-02-14T08:12:49.415Z,1.80
2019-02-14T08:14:23.385Z,1.90
2019-02-14T08:15:57.244Z,2.10
2019-02-14T08:17:31.127Z,1.90
2019-02-14T08:19:04.266Z,1.57
2019-02-14T08:20:38.339Z,1.77
2019-02-14T08:22:11.934Z,2.63
2019-02-14T08:23:44.770Z,1.37
2019-02-14T08:25:18.070Z,2.47
2019-02-14T08:26:52.810Z,2.70
2019-02-14T08:28:25.449Z,1.43
2019-02-14T08:29:59.450Z,3.47
2019-02-14T08:31:33.339Z,1.17
2019-02-14T08:33:06.246Z,1.57
2019-02-14T08:34:40.109Z,1.30
2019-02-14T08:36:14.153Z,1.40
2019-02-14T08:37:48.267Z,1.13
2019-02-14T08:39:21.256Z,1.97
2019-02-14T08:40:55.369Z,1.63
2019-02-14T08:42:29.138Z,1.47
2019-02-14T08:44:03.028Z,1.37
2019-02-14T08:45:36.691Z,1.40
2019-02-14T08:47:10.613Z,1.37
2019-02-14T08:48:44.508Z,1.50
2019-02-14T08:50:17.367Z,1.53
2019-02-14T08:51:50.321Z,1.73
2019-02-14T08:53:23.618Z,1.77
2019-02-14T08:54:56.440Z,1.40
2019-02-14T08:56:30.185Z,1.70
2019-02-14T08:58:04.078Z,1.40
2019-02-14T08:59:38.096Z,1.47
2019-02-14T09:01:11.834Z,1.67
2019-02-14T09:02:45.938Z,2.67
2019-02-14T09:04:18.842Z,1.10
2019-02-14T09:05:52.540Z,1.47
2019-02-14T09:07:25.472Z,1.10
2019-02-14T09:08:59.509Z,1.20
2019-02-14T09:10:33.471Z,1.27
2019-02-14T09:12:07.392Z,1.33
2019-02-14T09:13:41.378Z,2.73
2019-02-14T09:15:15.127Z,1.10
2019-02-14T09:16:49.996Z,1.20
2019-02-14T09:18:23.635Z,3.77
2019-02-14T09:19:56.452Z,1.60
2019-02-14T09:21:30.493Z,1.20
2019-02-14T09:23:03.350Z,1.47
2019-02-14T09:24:36.432Z,1.60
2019-02-14T09:26:10.340Z,1.67
2019-02-14T09:27:43.254Z,1.50
2019-02-14T09:29:17.331Z,1.60
2019-02-14T09:30:51.405Z,1.90
2019-02-14T09:32:24.998Z,1.87
2019-02-14T09:33:59.106Z,1.70
2019-02-14T09:35:32.027Z,1.93
2019-02-14T09:37:04.985Z,1.83
2019-02-14T09:38:39.099Z,2.10
2019-02-14T09:40:12.962Z,1.47
2019-02-14T09:41:47.581Z,1.63
2019-02-14T09:43:29.433Z,3.10
2019-02-14T09:44:55.638Z,2.53
2019-02-14T09:46:28.677Z,2.20
2019-02-14T09:48:02.911Z,2.87
2019-02-14T09:49:36.011Z,2.03
2019-02-14T09:51:10.214Z,3.97
2019-02-14T09:52:44.233Z,2.13
2019-02-14T09:54:17.915Z,2.37
2019-02-14T09:55:51.709Z,3.40
2019-02-14T09:57:25.358Z,2.37
2019-02-14T09:58:59.296Z,2.10
2019-02-14T10:00:35.267Z,2.07
2019-02-14T10:02:09.163Z,2.50
2019-02-14T10:03:43.157Z,2.40
2019-02-14T10:05:17.316Z,3.03
2019-02-14T10:06:50.249Z,2.93
2019-02-14T10:08:25.109Z,3.47
2019-02-14T10:09:59.105Z,3.47
2019-02-14T10:11:31.978Z,3.90
2019-02-14T10:13:05.630Z,3.50
2019-02-14T10:14:38.571Z,2.97
2019-02-14T10:16:12.357Z,2.37
2019-02-14T10:17:45.217Z,3.70
2019-02-14T10:19:18.080Z,4.90
2019-02-14T10:20:52.186Z,2.83
2019-02-14T10:22:26.200Z,2.53
2019-02-14T10:23:59.935Z,3.60
2019-02-14T10:25:32.890Z,3.70
2019-02-14T10:27:06.775Z,3.03
2019-02-14T10:28:40.815Z,3.03
2019-02-14T10:30:13.773Z,4.20
2019-02-14T10:31:47.974Z,4.97
2019-02-14T10:33:21.789Z,2.60
2019-02-14T10:34:55.834Z,4.77
2019-02-14T10:36:29.782Z,2.80
2019-02-14T10:38:03.565Z,4.13
2019-02-14T10:39:37.544Z,6.43
2019-02-14T10:41:11.507Z,2.67
2019-02-14T10:42:45.205Z,4.30
2019-02-14T10:44:17.889Z,2.73
2019-02-14T10:45:52.113Z,2.90
2019-02-14T10:47:25.351Z,2.77
2019-02-14T10:48:59.182Z,3.63
2019-02-14T10:50:33.995Z,2.90
2019-02-14T10:52:07.862Z,4.20
2019-02-14T10:53:40.914Z,4.07
2019-02-14T10:55:13.855Z,4.70
2019-02-14T10:56:47.518Z,5.37
2019-02-14T10:58:21.738Z,3.83
2019-02-14T10:59:54.750Z,4.13
2019-02-14T11:01:29.426Z,7.47
2019-02-14T11:03:03.257Z,6.43
2019-02-14T11:04:37.245Z,5.27
2019-02-14T11:06:11.178Z,5.13
2019-02-14T11:07:44.031Z,5.30
2019-02-14T11:09:18.755Z,2.73
2019-02-14T11:10:52.683Z,4.27
2019-02-14T11:12:26.875Z,4.33
2019-02-14T11:14:01.343Z,4.83
2019-02-14T11:15:36.213Z,5.27
2019-02-14T11:17:09.902Z,4.77
2019-02-14T11:18:44.614Z,6.60
2019-02-14T11:20:17.924Z,3.50
2019-02-14T11:21:50.358Z,3.27
2019-02-14T11:23:24.413Z,6.73
2019-02-14T11:24:59.283Z,3.17
2019-02-14T11:26:32.085Z,7.00
2019-02-14T11:28:06.007Z,4.53
2019-02-14T11:29:39.103Z,6.97
2019-02-14T11:31:13.051Z,5.63
2019-02-14T11:32:46.798Z,2.47
2019-02-14T11:34:20.758Z,2.83
2019-02-14T11:35:54.683Z,4.07
2019-02-14T11:37:27.658Z,6.57
2019-02-14T11:39:01.490Z,4.67
2019-02-14T11:40:35.480Z,4.60
2019-02-14T11:42:09.257Z,4.30
2019-02-14T11:43:42.260Z,3.57
2019-02-14T11:45:16.071Z,6.63
2019-02-14T11:46:51.813Z,3.33
2019-02-14T11:48:24.968Z,3.33
2019-02-14T11:49:58.089Z,5.97
2019-02-14T11:51:32.077Z,4.77
2019-02-14T11:53:13.872Z,4.37
2019-02-14T11:54:39.366Z,3.50
2019-02-14T11:56:13.094Z,4.33
2019-02-14T11:57:46.863Z,3.73
2019-02-14T11:59:20.884Z,4.20
2019-02-14T12:00:54.990Z,4.87
2019-02-14T12:02:28.645Z,7.43
2019-02-14T12:04:01.555Z,3.90
2019-02-14T12:05:35.577Z,5.70
2019-02-14T12:07:08.570Z,6.97
2019-02-14T12:08:52.942Z,5.13
2019-02-14T12:10:15.654Z,5.23
2019-02-14T12:11:49.749Z,6.07
2019-02-14T12:13:23.729Z,6.37
2019-02-14T12:14:57.691Z,7.83
2019-02-14T12:16:31.435Z,9.47
2019-02-14T12:18:04.389Z,7.00
2019-02-14T12:19:39.162Z,6.13
2019-02-14T12:21:13.060Z,6.10
2019-02-14T12:22:47.406Z,7.63
2019-02-14T12:24:21.813Z,6.07
2019-02-14T12:25:55.657Z,8.90
2019-02-14T12:27:29.849Z,4.20
2019-02-14T12:29:03.807Z,7.47
2019-02-14T12:30:38.503Z,8.23
2019-02-14T12:32:13.653Z,10.23
2019-02-14T12:33:47.375Z,6.87
2019-02-14T12:35:21.107Z,9.77
2019-02-14T12:36:55.115Z,9.30
2019-02-14T12:38:28.834Z,7.60
2019-02-14T12:40:02.739Z,9.93
2019-02-14T12:41:36.577Z,8.73
2019-02-14T12:43:11.096Z,9.43
2019-02-14T12:44:45.053Z,11.20
2019-02-14T12:46:19.153Z,10.63
2019-02-14T12:47:52.872Z,7.30
2019-02-14T12:49:25.672Z,7.50
2019-02-14T12:50:58.569Z,6.63
2019-02-14T12:52:32.537Z,8.47
2019-02-14T12:54:07.332Z,7.70
2019-02-14T12:55:41.205Z,13.23
2019-02-14T12:57:15.065Z,10.03
2019-02-14T12:58:49.050Z,9.43
2019-02-14T13:00:24.894Z,11.60
2019-02-14T13:01:57.736Z,6.10
2019-02-14T13:03:31.778Z,9.57
2019-02-14T13:05:04.923Z,5.40
2019-02-14T13:06:38.867Z,7.03
2019-02-14T13:08:12.799Z,9.77
2019-02-14T13:09:47.534Z,11.57
2019-02-14T13:11:21.224Z,11.47
2019-02-14T13:12:54.194Z,7.60
2019-02-14T13:14:27.445Z,9.97
2019-02-14T13:16:00.536Z,11.30
2019-02-14T13:17:34.778Z,6.37
2019-02-14T13:19:07.980Z,14.43
2019-02-14T13:20:42.149Z,8.73
2019-02-14T13:22:16.186Z,11.13
2019-02-14T13:23:50.279Z,10.03
2019-02-14T13:25:25.080Z,9.97
2019-02-14T13:26:59.104Z,11.47
2019-02-14T13:28:33.110Z,12.47
2019-02-14T13:30:07.846Z,11.47
2019-02-14T13:31:41.888Z,14.73
2019-02-14T13:33:14.893Z,16.57
2019-02-14T13:34:48.901Z,7.70
2019-02-14T13:36:22.947Z,15.50
2019-02-14T13:37:56.731Z,20.10
2019-02-14T13:39:32.617Z,16.47
2019-02-14T13:41:04.735Z,12.23
2019-02-14T13:42:38.617Z,13.47
2019-02-14T13:44:12.118Z,14.60
2019-02-14T13:45:46.959Z,11.73
2019-02-14T13:47:20.942Z,14.47
2019-02-14T13:48:54.969Z,12.53
2019-02-14T13:50:30.000Z,15.63
2019-02-14T13:52:02.871Z,16.97
2019-02-14T13:53:35.953Z,14.67
2019-02-14T13:55:09.941Z,11.57
2019-02-14T13:56:43.788Z,11.63
2019-02-14T13:58:16.765Z,9.47
2019-02-14T13:59:50.507Z,11.23
2019-02-14T14:01:23.390Z,12.70
2019-02-14T14:02:56.924Z,15.13
2019-02-14T14:04:30.823Z,9.93
2019-02-14T14:06:04.631Z,15.33
2019-02-14T14:07:40.615Z,10.93
2019-02-14T14:09:12.409Z,9.10
2019-02-14T14:10:46.425Z,16.53
2019-02-14T14:12:19.430Z,10.13
2019-02-14T14:13:53.339Z,8.53
2019-02-14T14:15:27.268Z,11.23
2019-02-14T14:17:00.194Z,11.20
2019-02-14T14:18:34.299Z,10.23
2019-02-14T14:20:07.259Z,13.17
2019-02-14T14:21:41.075Z,9.53
2019-02-14T14:23:15.071Z,13.83
2019-02-14T14:24:49.419Z,10.27
2019-02-14T14:26:23.500Z,11.63
2019-02-14T14:27:57.230Z,17.07
2019-02-14T14:29:30.179Z,8.10
2019-02-14T14:31:04.058Z,14.10
2019-02-14T14:32:37.984Z,8.73
2019-02-14T14:34:12.993Z,13.20
2019-02-14T14:35:46.605Z,13.37
2019-02-14T14:37:20.494Z,10.37
2019-02-14T14:38:53.536Z,14.33
2019-02-14T14:40:27.681Z,11.27
2019-02-14T14:42:00.689Z,13.93
2019-02-14T14:43:44.771Z,12.53
2019-02-14T14:45:19.678Z,11.57
2019-02-14T14:47:00.812Z,15.10
2019-02-14T14:48:36.830Z,14.97
2019-02-14T14:50:10.578Z,14.50
2019-02-14T14:51:44.565Z,9.87
2019-02-14T14:53:17.417Z,10.67
2019-02-14T14:54:50.140Z,12.03
2019-02-14T14:56:22.949Z,10.33
2019-02-14T14:57:56.603Z,9.80
2019-02-14T14:59:29.561Z,14.17
2019-02-14T15:01:03.652Z,10.43
2019-02-14T15:02:36.629Z,21.03
2019-02-14T15:04:10.390Z,19.03
2019-02-14T15:05:44.326Z,10.23
2019-02-14T15:07:18.266Z,9.13
2019-02-14T15:08:52.388Z,11.33
2019-02-14T15:10:26.099Z,9.93
2019-02-14T15:11:58.817Z,8.37
2019-02-14T15:13:32.711Z,11.40
2019-02-14T15:15:06.533Z,10.50
2019-02-14T15:16:40.232Z,12.37
2019-02-14T15:18:13.234Z,6.93
2019-02-14T15:19:47.022Z,11.40
2019-02-14T15:21:19.849Z,12.67
2019-02-14T15:22:53.708Z,8.50
2019-02-14T15:24:27.617Z,13.30
2019-02-14T15:26:00.378Z,10.20
2019-02-14T15:27:33.168Z,13.63
2019-02-14T15:29:06.918Z,9.13
2019-02-14T15:30:40.869Z,9.70
2019-02-14T15:32:15.038Z,8.97
2019-02-14T15:33:49.067Z,8.70
2019-02-14T15:35:22.029Z,11.27
2019-02-14T15:36:55.015Z,13.77
2019-02-14T15:38:28.969Z,14.63
2019-02-14T15:40:09.245Z,10.80
2019-02-14T15:41:38.309Z,12.83
2019-02-14T15:43:12.301Z,13.60
2019-02-14T15:44:46.238Z,10.80
2019-02-14T15:46:20.325Z,12.33
2019-02-14T15:47:53.248Z,11.60
2019-02-14T15:49:27.313Z,14.70
2019-02-14T15:51:01.186Z,13.70
2019-02-14T15:52:35.195Z,11.00
2019-02-14T15:54:10.119Z,12.73
2019-02-14T15:55:43.915Z,9.40
2019-02-14T15:57:18.627Z,10.90
2019-02-14T15:58:52.413Z,10.37
2019-02-14T16:00:26.555Z,15.10
2019-02-14T16:02:00.419Z,8.57
2019-02-14T16:03:34.288Z,9.27
2019-02-14T16:05:08.331Z,12.77
2019-02-14T16:06:42.080Z,13.70
2019-02-14T16:08:16.173Z,13.20
2019-02-14T16:09:50.070Z,15.87
2019-02-14T16:11:22.945Z,10.13
2019-02-14T16:12:57.818Z,11.77
2019-02-14T16:14:31.945Z,9.07
2019-02-14T16:16:05.815Z,9.00
2019-02-14T16:17:39.579Z,7.43
2019-02-14T16:19:13.235Z,9.30
2019-02-14T16:20:47.091Z,10.37
2019-02-14T16:22:19.961Z,15.30
2019-02-14T16:23:55.219Z,13.33
2019-02-14T16:25:30.274Z,13.87
2019-02-14T16:27:03.337Z,17.37
2019-02-14T16:28:37.773Z,13.03
2019-02-14T16:30:10.900Z,12.13
2019-02-14T16:31:44.876Z,17.53
2019-02-14T16:33:18.709Z,13.23
2019-02-14T16:34:52.590Z,10.53
2019-02-14T16:36:26.633Z,12.70
2019-02-14T16:38:00.418Z,13.17
2019-02-14T16:39:33.281Z,7.90
2019-02-14T16:41:06.971Z,12.57
2019-02-14T16:42:40.905Z,8.17
2019-02-14T16:44:14.595Z,10.17
2019-02-14T16:45:48.725Z,13.83
2019-02-14T16:47:22.509Z,10.63
2019-02-14T16:48:56.369Z,12.20
2019-02-14T16:50:31.049Z,13.10
2019-02-14T16:52:04.910Z,13.37
2019-02-14T16:53:38.929Z,11.57
2019-02-14T16:55:12.843Z,9.30
2019-02-14T16:56:52.678Z,12.90
2019-02-14T16:58:26.755Z,12.97
2019-02-14T17:00:00.423Z,12.47
2019-02-14T17:01:34.276Z,16.70
2019-02-14T17:03:08.398Z,11.07
2019-02-14T17:04:42.210Z,9.53
2019-02-14T17:06:15.893Z,13.33
2019-02-14T17:07:49.763Z,15.87
2019-02-14T17:09:23.541Z,17.73
2019-02-14T17:10:58.507Z,14.80
2019-02-14T17:12:32.626Z,12.43
2019-02-14T17:14:06.651Z,11.97
2019-02-14T17:15:40.634Z,14.33
2019-02-14T17:17:14.838Z,14.20
2019-02-14T17:18:48.702Z,13.90
2019-02-14T17:20:23.519Z,14.90
2019-02-14T17:21:57.441Z,11.77
2019-02-14T17:23:31.506Z,13.23
2019-02-14T17:25:05.489Z,13.07
2019-02-14T17:26:39.266Z,12.63
2019-02-14T17:28:12.032Z,13.43
2019-02-14T17:29:45.956Z,14.03
2019-02-14T17:31:18.907Z,13.13
2019-02-14T17:32:52.832Z,16.43
2019-02-14T17:34:25.807Z,9.77
2019-02-14T17:35:58.743Z,13.77
2019-02-14T17:37:31.684Z,12.17
2019-02-14T17:39:05.368Z,11.50
2019-02-14T17:40:45.836Z,16.23
2019-02-14T17:42:13.317Z,8.60
2019-02-14T17:43:47.174Z,14.83
2019-02-14T17:45:21.110Z,9.90
2019-02-14T17:46:54.975Z,13.90
2019-02-14T17:48:28.984Z,13.17
2019-02-14T17:50:04.033Z,10.10
2019-02-14T17:51:38.252Z,15.07
2019-02-14T17:53:12.207Z,14.73
2019-02-14T17:54:46.102Z,12.60
2019-02-14T17:56:21.091Z,13.03
2019-02-14T17:57:56.605Z,14.90
2019-02-14T17:59:29.483Z,16.07
2019-02-14T18:01:04.310Z,10.20
2019-02-14T18:02:38.259Z,11.47
2019-02-14T18:04:12.205Z,15.80
2019-02-14T18:05:46.176Z,12.57
2019-02-14T18:07:20.814Z,12.07
2019-02-14T18:08:54.936Z,12.93
2019-02-14T18:10:29.774Z,10.67
2019-02-14T18:12:03.466Z,7.60
2019-02-14T18:13:37.377Z,13.10
2019-02-14T18:15:11.253Z,14.53
2019-02-14T18:16:46.356Z,13.73
2019-02-14T18:18:20.182Z,23.97
2019-02-14T18:19:52.972Z,13.77
2019-02-14T18:21:26.057Z,14.00
2019-02-14T18:22:59.738Z,13.20
2019-02-14T18:24:33.668Z,15.77
2019-02-14T18:26:06.635Z,14.63
2019-02-14T18:27:40.537Z,17.40
2019-02-14T18:29:13.484Z,12.77
2019-02-14T18:30:47.265Z,14.67
2019-02-14T18:32:21.014Z,13.83
2019-02-14T18:33:53.777Z,14.83
2019-02-14T18:35:27.694Z,16.33
2019-02-14T18:37:00.809Z,12.67
2019-02-14T18:38:34.486Z,10.20
2019-02-14T18:40:07.127Z,17.80
2019-02-14T18:41:41.140Z,18.00
2019-02-14T18:43:15.175Z,18.17
2019-02-14T18:44:48.245Z,12.97
2019-02-14T18:46:22.286Z,15.77
2019-02-14T18:47:56.355Z,13.87
2019-02-14T18:49:29.434Z,12.57
2019-02-14T18:51:03.356Z,13.93
2019-02-14T18:52:37.227Z,15.63
2019-02-14T18:54:10.409Z,11.00
2019-02-14T18:55:43.210Z,15.23
2019-02-14T18:57:16.907Z,9.87
2019-02-14T18:58:50.903Z,16.00
2019-02-14T19:00:26.935Z,11.50
2019-02-14T19:02:01.767Z,17.47
2019-02-14T19:03:35.668Z,13.87
2019-02-14T19:05:09.403Z,7.80
2019-02-14T19:06:43.272Z,11.30
2019-02-14T19:08:16.073Z,21.10
2019-02-14T19:09:49.957Z,17.93
2019-02-14T19:11:24.087Z,14.00
2019-02-14T19:12:58.047Z,13.07
2019-02-14T19:14:31.965Z,13.00
2019-02-14T19:16:05.909Z,16.67
2019-02-14T19:17:40.422Z,14.37
2019-02-14T19:19:14.407Z,11.57
2019-02-14T19:20:48.299Z,11.73
2019-02-14T19:22:22.248Z,14.00
2019-02-14T19:23:56.116Z,11.47
2019-02-14T19:25:30.154Z,12.83
2019-02-14T19:27:03.908Z,8.40
2019-02-14T19:28:38.861Z,12.87
2019-02-14T19:30:12.962Z,12.33
2019-02-14T19:31:47.977Z,18.80
2019-02-14T19:33:21.257Z,13.57
2019-02-14T19:34:54.218Z,12.50
2019-02-14T19:36:28.153Z,15.90
2019-02-14T19:38:02.375Z,11.67
2019-02-14T19:39:36.255Z,10.63
2019-02-14T19:41:11.085Z,16.87
2019-02-14T19:42:45.100Z,11.23
2019-02-14T19:44:19.063Z,13.27
2019-02-14T19:45:52.991Z,12.13
2019-02-14T19:47:26.890Z,14.07
2019-02-14T19:49:01.153Z,15.07
2019-02-14T19:50:35.105Z,10.07
2019-02-14T19:52:11.878Z,12.23
2019-02-14T19:53:43.732Z,13.10
2019-02-14T19:55:18.660Z,14.30
2019-02-14T19:56:52.697Z,14.73
2019-02-14T19:58:26.719Z,16.27
2019-02-14T19:59:59.462Z,14.80
2019-02-14T20:01:33.357Z,16.00
2019-02-14T20:03:06.430Z,13.50
2019-02-14T20:04:39.335Z,16.97
2019-02-14T20:06:13.203Z,13.83
2019-02-14T20:07:47.115Z,15.13
2019-02-14T20:09:22.004Z,14.23
2019-02-14T20:10:56.819Z,11.10
2019-02-14T20:12:30.885Z,15.27
2019-02-14T20:14:04.875Z,12.97
2019-02-14T20:15:39.853Z,12.70
2019-02-14T20:17:13.976Z,14.80
2019-02-14T20:18:47.763Z,12.07
2019-02-14T20:20:22.695Z,11.43
2019-02-14T20:21:56.746Z,9.83
2019-02-14T20:23:31.030Z,10.37
2019-02-14T20:25:03.928Z,12.93